createdAt,value
2019-02-20T00:01:38.316Z,10.03
2019-02-20T00:04:06.375Z,9.97
2019-02-20T00:06:34.432Z,9.03
2019-02-20T00:09:04.495Z,9.37
2019-02-20T00:11:32.455Z,8.67
2019-02-20T00:14:00.519Z,9.60
2019-02-20T00:16:28.560Z,9.23
2019-02-20T00:18:56.534Z,9.50
2019-02-20T00:21:24.550Z,10.10
2019-02-20T00:23:52.568Z,8.90
2019-02-20T00:26:22.149Z,8.20
2019-02-20T00:28:52.150Z,8.37
2019-02-20T00:31:20.167Z,9.40
2019-02-20T00:33:48.157Z,9.90
2019-02-20T00:36:17.130Z,8.90
2019-02-20T00:38:45.120Z,8.10
2019-02-20T00:41:13.186Z,8.97
2019-02-20T00:43:42.754Z,8.37
2019-02-20T00:46:42.095Z,7.30
2019-02-20T00:49:17.456Z,8.60
2019-02-20T00:52:07.590Z,8.13
2019-02-20T00:54:36.070Z,8.07
2019-02-20T00:57:04.583Z,8.50
2019-02-20T00:59:33.120Z,9.77
2019-02-20T01:02:01.820Z,7.60
2019-02-20T01:04:30.203Z,7.90
2019-02-20T01:06:58.523Z,7.60
2019-02-20T01:09:26.936Z,7.07
2019-02-20T01:11:55.252Z,7.07
2019-02-20T01:14:23.555Z,7.23
2019-02-20T01:16:51.864Z,6.73
2019-02-20T01:19:20.152Z,7.23
2019-02-20T01:21:48.472Z,7.33
2019-02-20T01:24:16.727Z,6.27
2019-02-20T01:26:45.020Z,6.20
2019-02-20T01:29:13.352Z,5.97
2019-02-20T01:31:41.641Z,6.37
2019-02-20T01:34:09.880Z,6.50
2019-02-20T01:36:38.174Z,5.90
2019-02-20T01:39:06.785Z,5.60
2019-02-20T01:41:35.293Z,4.97
2019-02-20T01:44:03.512Z,5.87
2019-02-20T01:46:33.183Z,5.03
2019-02-20T01:49:02.019Z,5.50
2019-02-20T01:51:30.366Z,5.43
2019-02-20T01:53:58.695Z,5.80
2019-02-20T01:56:28.396Z,5.17
2019-02-20T01:58:56.768Z,6.53
2019-02-20T02:01:25.218Z,4.77
2019-02-20T02:03:59.764Z,4.63
2019-02-20T02:06:28.019Z,4.93
2019-02-20T02:08:56.235Z,5.10
2019-02-20T02:11:24.946Z,4.73
2019-02-20T02:13:53.129Z,4.67
2019-02-20T02:16:21.379Z,5.63
2019-02-20T02:18:49.560Z,4.40
2019-02-20T02:21:17.784Z,5.17
2019-02-20T02:23:47.678Z,4.83
2019-02-20T02:26:16.173Z,4.67
2019-02-20T02:28:44.602Z,4.73
2019-02-20T02:31:12.928Z,5.13
2019-02-20T02:33:41.235Z,4.27
2019-02-20T02:36:09.600Z,4.53
2019-02-20T02:38:37.983Z,5.43
2019-02-20T02:41:06.488Z,5.23
2019-02-20T02:43:36.461Z,5.87
2019-02-20T02:46:05.114Z,6.47
2019-02-20T02:48:33.479Z,6.90
2019-02-20T02:51:01.700Z,5.27
2019-02-20T02:53:30.966Z,6.50
2019-02-20T02:55:59.720Z,5.63
2019-02-20T02:58:28.045Z,5.50
2019-02-20T03:00:56.336Z,6.57
2019-02-20T03:03:26.914Z,6.77
2019-02-20T03:05:55.254Z,6.07
2019-02-20T03:08:23.564Z,5.83
2019-02-20T03:10:51.829Z,6.33
2019-02-20T03:13:20.113Z,7.00
2019-02-20T03:15:48.435Z,7.63
2019-02-20T03:18:16.826Z,6.93
2019-02-20T03:20:45.134Z,7.73
2019-02-20T03:23:13.451Z,7.43
2019-02-20T03:25:41.741Z,7.47
2019-02-20T03:28:10.044Z,8.37
2019-02-20T03:30:39.383Z,7.67
2019-02-20T03:33:07.722Z,8.73
2019-02-20T03:35:36.111Z,10.10
2019-02-20T03:38:04.099Z,9.60
2019-02-20T03:40:32.086Z,8.63
2019-02-20T03:43:00.066Z,9.63
2019-02-20T03:45:29.061Z,9.20
2019-02-20T03:47:58.930Z,9.50
2019-02-20T03:50:26.935Z,9.57
2019-02-20T03:52:54.942Z,9.97
2019-02-20T03:55:22.978Z,9.13
2019-02-20T03:57:50.980Z,9.20
2019-02-20T04:00:18.973Z,9.13
2019-02-20T04:02:47.001Z,9.87
2019-02-20T04:05:15.417Z,9.27
2019-02-20T04:07:43.373Z,11.10
2019-02-20T04:10:12.786Z,9.07
2019-02-20T04:12:40.860Z,11.33
2019-02-20T04:15:08.971Z,11.17
2019-02-20T04:17:36.955Z,10.87
2019-02-20T04:20:05.683Z,10.43
2019-02-20T04:22:33.745Z,10.40
2019-02-20T04:25:01.910Z,11.20
2019-02-20T04:27:29.847Z,9.87
2019-02-20T04:29:57.876Z,10.10
2019-02-20T04:32:25.879Z,8.97
2019-02-20T04:34:53.916Z,10.07
2019-02-20T04:37:21.941Z,10.60
2019-02-20T04:39:49.939Z,10.43
2019-02-20T04:42:17.906Z,10.67
2019-02-20T04:44:45.904Z,10.63
2019-02-20T04:47:13.900Z,10.93
2019-02-20T04:49:41.950Z,10.47
2019-02-20T04:52:09.962Z,10.10
2019-02-20T04:54:37.974Z,10.30
2019-02-20T04:57:05.984Z,9.93
2019-02-20T04:59:33.985Z,10.17
2019-02-20T05:02:01.961Z,10.60
2019-02-20T05:04:30.021Z,10.47
2019-02-20T05:06:58.329Z,10.60
2019-02-20T05:09:26.353Z,9.70
2019-02-20T05:11:54.375Z,9.77
2019-02-20T05:14:22.452Z,8.87
2019-02-20T05:16:50.500Z,10.23
2019-02-20T05:19:18.457Z,9.80
2019-02-20T05:21:46.463Z,10.07
2019-02-20T05:24:24.007Z,9.83
2019-02-20T05:26:44.250Z,10.00
2019-02-20T05:29:12.565Z,9.87
2019-02-20T05:31:40.620Z,9.10
2019-02-20T05:34:08.642Z,10.23
2019-02-20T05:36:36.955Z,9.77
2019-02-20T05:39:06.049Z,9.13
2019-02-20T05:41:34.424Z,9.47
2019-02-20T05:44:02.428Z,9.63
2019-02-20T05:46:30.849Z,9.93
2019-02-20T05:48:58.877Z,9.85
2019-02-20T05:51:27.149Z,9.10
2019-02-20T05:53:55.294Z,10.83
2019-02-20T05:56:23.332Z,9.63
2019-02-20T05:58:51.778Z,9.90
2019-02-20T06:01:19.866Z,9.23
2019-02-20T06:03:48.087Z,10.07
2019-02-20T06:06:16.261Z,10.37
2019-02-20T06:08:44.422Z,9.17
2019-02-20T06:11:15.227Z,11.00
2019-02-20T06:13:42.388Z,8.53
2019-02-20T06:16:10.504Z,8.87
2019-02-20T06:18:39.131Z,8.27
2019-02-20T06:21:07.359Z,9.20
2019-02-20T06:23:35.473Z,8.90
2019-02-20T06:26:03.874Z,8.33
2019-02-20T06:28:31.964Z,8.33
2019-02-20T06:31:00.181Z,8.13
2019-02-20T06:33:29.312Z,8.77
2019-02-20T06:35:57.498Z,8.90
2019-02-20T06:38:26.377Z,8.60
2019-02-20T06:40:54.518Z,8.50
2019-02-20T06:43:22.635Z,7.63
2019-02-20T06:45:50.709Z,8.50
2019-02-20T06:51:07.266Z,7.90
2019-02-20T06:53:35.354Z,9.23
2019-02-20T06:56:03.393Z,8.03
2019-02-20T06:58:31.444Z,7.93
2019-02-20T07:00:59.460Z,8.47
2019-02-20T07:03:27.517Z,8.57
2019-02-20T07:06:00.545Z,7.90
2019-02-20T07:08:47.369Z,7.93
2019-02-20T07:11:22.640Z,7.93
2019-02-20T07:14:00.466Z,7.77
2019-02-20T07:16:48.639Z,7.80
2019-02-20T07:19:28.909Z,6.27
2019-02-20T07:22:10.873Z,6.43
2019-02-20T07:25:02.906Z,6.87
2019-02-20T07:27:44.625Z,6.20
2019-02-20T07:30:13.465Z,6.67
2019-02-20T07:32:41.551Z,7.70
2019-02-20T07:35:19.140Z,7.03
2019-02-20T07:37:47.902Z,6.40
2019-02-20T07:40:16.653Z,8.17
2019-02-20T07:42:47.936Z,6.73
2019-02-20T07:45:18.080Z,7.50
2019-02-20T07:47:46.177Z,7.20
2019-02-20T07:50:17.130Z,7.47
2019-02-20T07:52:45.230Z,7.43
2019-02-20T07:55:13.899Z,6.80
2019-02-20T07:57:42.126Z,6.87
2019-02-20T08:00:11.029Z,7.60
2019-02-20T08:02:38.988Z,7.37
2019-02-20T08:05:08.839Z,5.80
2019-02-20T08:07:36.916Z,6.43
2019-02-20T08:10:05.365Z,7.00
2019-02-20T08:12:34.865Z,8.87
2019-02-20T08:15:03.940Z,8.00
2019-02-20T08:17:31.916Z,7.33
2019-02-20T08:20:00.012Z,7.33
2019-02-20T08:22:30.098Z,8.47
2019-02-20T08:24:58.184Z,7.03
2019-02-20T08:27:26.373Z,7.33
2019-02-20T08:29:54.337Z,6.63
2019-02-20T08:32:22.357Z,7.40
2019-02-20T08:34:50.363Z,6.77
2019-02-20T08:37:21.163Z,7.93
2019-02-20T08:39:50.721Z,8.13
2019-02-20T08:42:18.792Z,7.20
2019-02-20T08:44:46.930Z,7.53
2019-02-20T08:47:15.026Z,6.20
2019-02-20T08:49:43.095Z,8.77
2019-02-20T08:52:11.138Z,8.07
2019-02-20T08:54:39.158Z,8.87
2019-02-20T08:57:07.685Z,7.73
2019-02-20T08:59:35.704Z,8.37
2019-02-20T09:02:03.867Z,7.47
2019-02-20T09:04:31.886Z,7.97
2019-02-20T09:06:59.908Z,8.70
2019-02-20T09:09:27.953Z,7.13
2019-02-20T09:11:56.017Z,7.77
2019-02-20T09:14:24.078Z,8.30
2019-02-20T09:16:52.092Z,8.10
2019-02-20T09:19:20.096Z,7.47
2019-02-20T09:21:48.040Z,9.33
2019-02-20T09:24:16.060Z,8.20
2019-02-20T09:26:44.087Z,10.43
2019-02-20T09:29:12.181Z,7.17
2019-02-20T09:31:40.182Z,8.37
2019-02-20T09:34:08.158Z,7.63
2019-02-20T09:36:36.170Z,8.13
2019-02-20T09:39:22.328Z,9.17
2019-02-20T09:41:50.336Z,7.43
2019-02-20T09:44:18.398Z,8.07
2019-02-20T09:46:46.434Z,8.33
2019-02-20T09:49:15.049Z,8.77
2019-02-20T09:51:43.094Z,7.30
2019-02-20T09:54:11.056Z,8.30
2019-02-20T09:56:39.119Z,8.40
2019-02-20T09:59:07.106Z,8.97
2019-02-20T10:01:35.167Z,7.30
2019-02-20T10:04:03.189Z,8.03
2019-02-20T10:06:32.284Z,9.07
2019-02-20T10:09:00.347Z,8.50
2019-02-20T10:11:28.420Z,8.67
2019-02-20T10:13:56.448Z,8.33
2019-02-20T10:16:24.485Z,8.83
2019-02-20T10:18:52.557Z,9.13
2019-02-20T10:21:20.636Z,8.33
2019-02-20T10:23:48.676Z,8.00
2019-02-20T10:26:16.714Z,9.03
2019-02-20T10:28:44.741Z,9.37
2019-02-20T10:31:12.724Z,8.97
2019-02-20T10:33:40.766Z,8.63
2019-02-20T10:36:08.763Z,8.87
2019-02-20T10:38:36.802Z,9.50
2019-02-20T10:41:05.228Z,8.77
2019-02-20T10:43:33.272Z,9.07
2019-02-20T10:46:01.281Z,8.80
2019-02-20T10:48:29.849Z,9.40
2019-02-20T10:50:57.885Z,8.73
2019-02-20T10:53:25.928Z,9.20
2019-02-20T10:55:53.942Z,9.80
2019-02-20T10:58:21.961Z,9.17
2019-02-20T11:00:51.024Z,9.10
2019-02-20T11:03:18.971Z,9.30
2019-02-20T11:05:47.042Z,10.33
2019-02-20T11:08:16.379Z,10.20
2019-02-20T11:10:44.399Z,9.73
2019-02-20T11:13:12.411Z,9.10
2019-02-20T11:15:40.512Z,9.30
2019-02-20T11:18:08.534Z,9.60
2019-02-20T11:20:37.412Z,9.50
2019-02-20T11:23:05.437Z,8.43
2019-02-20T11:25:33.433Z,9.57
2019-02-20T11:28:01.415Z,9.73
2019-02-20T11:30:29.443Z,9.10
2019-02-20T11:32:57.495Z,8.90
2019-02-20T11:35:25.544Z,8.97
2019-02-20T11:37:53.601Z,9.30
2019-02-20T11:40:21.638Z,10.07
2019-02-20T11:42:49.713Z,9.97
2019-02-20T11:45:17.667Z,9.13
2019-02-20T11:47:46.228Z,9.93
2019-02-20T11:50:14.192Z,9.63
2019-02-20T11:52:42.291Z,8.73
2019-02-20T11:55:10.310Z,9.47
2019-02-20T11:57:38.316Z,9.20
2019-02-20T12:00:07.077Z,10.37
2019-02-20T12:02:37.538Z,10.23
2019-02-20T12:05:04.982Z,13.53
2019-02-20T12:07:34.896Z,10.07
2019-02-20T12:10:02.634Z,10.30
2019-02-20T12:12:30.645Z,9.73
2019-02-20T12:14:58.731Z,8.40
2019-02-20T12:17:27.872Z,9.13
2019-02-20T12:19:55.880Z,10.27
2019-02-20T12:22:23.855Z,10.47
2019-02-20T12:24:54.832Z,12.40
2019-02-20T12:27:22.983Z,11.17
2019-02-20T12:29:50.978Z,10.73
2019-02-20T12:32:19.976Z,13.00
2019-02-20T12:34:48.035Z,9.77
2019-02-20T12:37:16.192Z,11.17
2019-02-20T12:39:44.177Z,9.93
2019-02-20T12:42:13.052Z,8.40
2019-02-20T12:44:41.162Z,9.80
2019-02-20T12:47:09.142Z,8.30
2019-02-20T12:49:37.274Z,9.60
2019-02-20T12:52:05.271Z,8.00
2019-02-20T12:54:33.267Z,9.37
2019-02-20T12:57:01.256Z,8.27
2019-02-20T12:59:29.334Z,8.97
2019-02-20T13:01:57.367Z,8.77
2019-02-20T13:04:25.732Z,9.40
2019-02-20T13:09:24.143Z,10.07
2019-02-20T13:11:52.147Z,8.33
2019-02-20T13:14:20.258Z,9.37
2019-02-20T13:16:48.293Z,8.70
2019-02-20T13:19:16.305Z,8.70
2019-02-20T13:21:44.506Z,8.13
2019-02-20T13:24:12.478Z,8.33
2019-02-20T13:26:40.501Z,8.87
2019-02-20T13:29:09.374Z,8.73
2019-02-20T13:31:37.362Z,8.33
2019-02-20T13:34:05.367Z,9.43
2019-02-20T13:36:33.345Z,7.90
2019-02-20T13:39:01.424Z,9.47
2019-02-20T13:41:29.393Z,7.90
2019-02-20T13:43:57.490Z,8.40
2019-02-20T13:46:25.596Z,8.47
2019-02-20T13:48:53.711Z,8.37
2019-02-20T13:51:21.774Z,9.17
2019-02-20T13:53:50.228Z,8.30
2019-02-20T13:56:18.228Z,7.87
2019-02-20T13:58:46.849Z,7.87
2019-02-20T14:01:15.240Z,7.93
2019-02-20T14:03:43.854Z,8.53
2019-02-20T14:06:12.596Z,8.50
2019-02-20T14:08:44.621Z,7.13
2019-02-20T14:11:13.616Z,9.80
2019-02-20T14:13:44.583Z,7.67
2019-02-20T14:16:14.922Z,8.17
2019-02-20T14:18:48.032Z,9.40
2019-02-20T14:21:16.823Z,8.37
2019-02-20T14:23:45.826Z,9.07
2019-02-20T14:26:14.599Z,9.20
2019-02-20T14:28:43.086Z,9.40
2019-02-20T14:31:11.185Z,9.60
2019-02-20T14:33:40.439Z,8.53
2019-02-20T14:36:08.699Z,8.67
2019-02-20T14:38:36.851Z,7.70
2019-02-20T14:41:05.296Z,7.37
2019-02-20T14:43:33.304Z,7.83
2019-02-20T14:46:01.420Z,9.10
2019-02-20T14:48:29.892Z,8.80
2019-02-20T14:50:58.852Z,8.37
2019-02-20T14:53:27.004Z,8.23
2019-02-20T14:55:55.605Z,9.10
2019-02-20T14:58:24.128Z,7.87
2019-02-20T15:00:52.206Z,8.17
2019-02-20T15:03:22.690Z,8.57
2019-02-20T15:05:50.730Z,8.67
2019-02-20T15:08:18.844Z,8.97
2019-02-20T15:10:46.805Z,10.10
2019-02-20T15:13:14.823Z,9.37
2019-02-20T15:15:42.970Z,10.13
2019-02-20T15:18:10.959Z,11.23
2019-02-20T15:20:40.610Z,10.77
2019-02-20T15:23:09.036Z,12.83
2019-02-20T15:25:38.343Z,11.20
2019-02-20T15:28:06.450Z,11.50
2019-02-20T15:30:35.213Z,12.60
2019-02-20T15:33:04.158Z,11.17
2019-02-20T15:35:35.009Z,10.53
2019-02-20T15:38:05.241Z,10.10
2019-02-20T15:40:33.693Z,11.53
2019-02-20T15:43:02.758Z,12.70
2019-02-20T15:45:32.512Z,12.80
2019-02-20T15:48:00.466Z,13.73
2019-02-20T15:50:28.479Z,13.10
2019-02-20T15:52:56.678Z,11.87
2019-02-20T15:55:27.487Z,15.40
2019-02-20T15:57:55.128Z,13.10
2019-02-20T16:00:25.205Z,14.43
2019-02-20T16:02:53.616Z,14.23
2019-02-20T16:05:21.749Z,11.23
2019-02-20T16:07:50.146Z,9.53
2019-02-20T16:10:22.835Z,10.23
2019-02-20T16:12:51.020Z,11.87
2019-02-20T16:15:24.190Z,10.03
2019-02-20T16:17:51.902Z,10.60
2019-02-20T16:20:21.330Z,11.33
2019-02-20T16:22:49.775Z,11.47
2019-02-20T16:25:17.850Z,12.83
2019-02-20T16:27:47.489Z,11.47
2019-02-20T16:30:15.804Z,12.63
2019-02-20T16:32:43.888Z,15.57
2019-02-20T16:35:12.303Z,14.23
2019-02-20T16:37:40.590Z,13.83
2019-02-20T16:40:08.909Z,13.37
2019-02-20T16:42:37.067Z,10.93
2019-02-20T16:45:05.494Z,10.47
2019-02-20T16:47:33.583Z,10.37
2019-02-20T16:50:01.652Z,9.60
2019-02-20T16:52:30.093Z,9.60
2019-02-20T16:54:58.110Z,10.43
2019-02-20T16:57:26.106Z,9.20
2019-02-20T16:59:54.087Z,9.33
2019-02-20T17:02:22.141Z,9.90
2019-02-20T17:04:50.239Z,8.63
2019-02-20T17:07:18.479Z,9.83
2019-02-20T17:09:46.819Z,10.27
2019-02-20T17:12:15.006Z,9.23
2019-02-20T17:14:42.959Z,7.93
2019-02-20T17:17:11.045Z,7.83
2019-02-20T17:19:39.203Z,9.93
2019-02-20T17:22:07.219Z,8.23
2019-02-20T17:24:35.201Z,15.07
2019-02-20T17:27:03.417Z,9.50
2019-02-20T17:29:31.624Z,9.00
2019-02-20T17:32:02.698Z,8.37
2019-02-20T17:34:30.763Z,7.43
2019-02-20T17:36:58.845Z,7.90
2019-02-20T17:39:26.859Z,8.83
2019-02-20T17:41:54.971Z,7.53
2019-02-20T17:44:23.448Z,8.37
2019-02-20T17:46:51.450Z,8.80
2019-02-20T17:49:19.474Z,9.97
2019-02-20T17:51:47.530Z,7.70
2019-02-20T17:54:17.199Z,7.47
2019-02-20T17:56:45.370Z,7.70
2019-02-20T17:59:13.737Z,7.43
2019-02-20T18:01:41.745Z,7.60
2019-02-20T18:04:09.755Z,6.70
2019-02-20T18:06:37.897Z,6.87
2019-02-20T18:09:05.905Z,7.37
2019-02-20T18:11:34.055Z,6.33
2019-02-20T18:14:02.007Z,7.40
2019-02-20T18:16:30.056Z,5.97
2019-02-20T18:18:58.308Z,6.40
2019-02-20T18:21:26.434Z,6.97
2019-02-20T18:23:54.498Z,6.60
2019-02-20T18:26:22.519Z,6.50
2019-02-20T18:28:50.541Z,7.90
2019-02-20T18:31:18.645Z,6.07
2019-02-20T18:33:46.642Z,6.60
2019-02-20T18:36:15.524Z,5.80
2019-02-20T18:38:44.255Z,6.53
2019-02-20T18:41:14.461Z,7.73
2019-02-20T18:43:42.211Z,5.87
2019-02-20T18:46:10.209Z,6.10
2019-02-20T18:48:38.252Z,6.27
2019-02-20T18:51:06.248Z,6.93
2019-02-20T18:53:34.296Z,6.45
2019-02-20T18:56:02.423Z,5.73
2019-02-20T18:58:34.032Z,6.83
2019-02-20T19:01:00.170Z,7.37
2019-02-20T19:03:28.340Z,6.87
2019-02-20T19:06:07.416Z,7.00
2019-02-20T19:08:45.723Z,8.07
2019-02-20T19:11:32.913Z,7.43
2019-02-20T19:14:09.129Z,6.53
2019-02-20T19:16:56.097Z,6.67
2019-02-20T19:19:43.304Z,7.27
2019-02-20T19:22:26.811Z,6.87
2019-02-20T19:25:11.795Z,8.10
2019-02-20T19:27:43.270Z,6.40
2019-02-20T19:30:33.504Z,7.20
2019-02-20T19:33:05.012Z,6.17
2019-02-20T19:35:42.982Z,7.87
2019-02-20T19:38:39.816Z,5.90
2019-02-20T19:41:27.255Z,7.43
2019-02-20T19:44:00.814Z,6.00
2019-02-20T19:46:37.103Z,6.90
2019-02-20T19:49:09.317Z,7.23
2019-02-20T19:51:56.554Z,6.37
2019-02-20T19:54:33.655Z,6.40
2019-02-20T19:57:21.137Z,7.27
2019-02-20T19:59:56.274Z,6.13
2019-02-20T20:02:38.023Z,5.43
2019-02-20T20:05:24.137Z,5.92
2019-02-20T20:08:10.170Z,6.70
2019-02-20T20:11:01.201Z,6.90
2019-02-20T20:13:48.372Z,6.45
2019-02-20T20:16:53.657Z,6.43
2019-02-20T20:19:47.262Z,7.07
2019-02-20T20:22:45.242Z,6.73
2019-02-20T20:25:19.470Z,7.07
2019-02-20T20:28:10.177Z,7.10
2019-02-20T20:31:07.824Z,7.40
2019-02-20T20:33:54.374Z,6.60
2019-02-20T20:36:54.252Z,6.20
2019-02-20T20:39:28.819Z,5.80
2019-02-20T20:42:17.193Z,6.67
2019-02-20T20:44:56.512Z,5.47
2019-02-20T20:47:31.376Z,6.63
2019-02-20T20:50:23.420Z,6.40
2019-02-20T20:53:19.950Z,6.20
2019-02-20T20:56:13.145Z,6.30
2019-02-20T20:58:44.628Z,5.90
2019-02-20T21:01:20.728Z,5.50
2019-02-20T21:03:59.093Z,5.93
2019-02-20T21:06:43.174Z,5.90
2019-02-20T21:09:33.369Z,5.60
2019-02-20T21:12:26.373Z,6.40
2019-02-20T21:15:16.262Z,5.70
2019-02-20T21:17:52.489Z,8.80
2019-02-20T21:20:24.695Z,5.47
2019-02-20T21:23:14.644Z,6.10
2019-02-20T21:26:24.507Z,6.40
2019-02-20T21:29:05.121Z,7.50
2019-02-20T21:31:53.742Z,6.77
2019-02-20T21:34:32.880Z,6.43
2019-02-20T21:37:20.035Z,5.67
2019-02-20T21:39:50.938Z,6.30
2019-02-20T21:42:31.770Z,10.03
2019-02-20T21:45:02.796Z,6.50
2019-02-20T21:47:42.027Z,7.87
2019-02-20T21:50:32.015Z,7.87
2019-02-20T21:53:31.561Z,7.20
2019-02-20T21:56:11.561Z,5.97
2019-02-20T21:59:00.847Z,7.40
2019-02-20T22:01:32.126Z,7.20
2019-02-20T22:04:12.911Z,6.27
2019-02-20T22:06:47.030Z,6.50
2019-02-20T22:09:27.350Z,6.83
2019-02-20T22:12:06.060Z,8.47
2019-02-20T22:15:00.345Z,6.77
2019-02-20T22:17:56.721Z,6.30
2019-02-20T22:20:43.841Z,6.43
2019-02-20T22:23:43.828Z,6.13
2019-02-20T22:26:18.674Z,5.80
2019-02-20T22:29:06.019Z,7.50
2019-02-20T22:31:46.294Z,6.50
2019-02-20T22:34:36.393Z,6.43
2019-02-20T22:37:22.230Z,5.80
2019-02-20T22:39:56.444Z,6.23
2019-02-20T22:42:28.554Z,5.47
2019-02-20T22:45:25.177Z,4.97
2019-02-20T22:48:14.945Z,6.10
2019-02-20T22:51:20.173Z,11.93
2019-02-20T22:54:13.313Z,6.47
2019-02-20T22:57:19.482Z,13.33
2019-02-20T23:00:17.197Z,12.00
2019-02-20T23:03:19.748Z,13.00
2019-02-20T23:06:01.121Z,10.03
2019-02-20T23:08:35.758Z,5.90
2019-02-20T23:11:32.214Z,8.57
2019-02-20T23:14:19.371Z,8.20
2019-02-20T23:16:47.366Z,7.83
2019-02-20T23:19:15.444Z,6.80
2019-02-20T23:21:43.440Z,7.37
2019-02-20T23:24:11.458Z,7.70
2019-02-20T23:26:39.544Z,6.77
2019-02-20T23:29:15.635Z,7.47
2019-02-20T23:31:43.693Z,7.17
2019-02-20T23:34:11.696Z,7.30
2019-02-20T23:36:39.819Z,7.40
2019-02-20T23:39:07.845Z,6.47
2019-02-20T23:41:35.886Z,7.20
2019-02-20T23:44:03.897Z,7.07
2019-02-20T23:46:32.002Z,6.77
2019-02-20T23:49:01.011Z,7.37
2019-02-20T23:51:29.023Z,7.43
2019-02-20T23:53:57.070Z,7.30
2019-02-20T23:56:25.105Z,7.53
2019-02-20T23:58:53.208Z,7.33
